• Join FlightAware (Why Join?)
  • Login
  • US Flag 
05:35AM EDT


 

Airport Tracker/Info


-or-


 

Live Flight TrackerFlight Track Log ✈ UAL6044 ✈ 20-Apr-2013 ✈ KIND - KIAD

Flight Track Log - Related Links

Times and Time Zones

All times are in EDT time to prevent confusion due to time zone crossing. See the UAL6044 flight status page for this flight to view local times or setup timezone preferences in your user account.

Time Position Orientation Groundspeed Altitude Reporting Facility
EDT Latitude Longitude Course Direction KTS MPH feet Rate Location/Type
02:31PM 39.7000 -86.3000 74° East 157 181 1,200  Level Indianapolis TRACON
02:31PM 39.6833 -86.3167 218° Southwest 169 194 2,600 2,100 Climbing Indianapolis TRACON
02:32PM 39.6333 -86.3000 166° South 234 269 4,600 2,040 Climbing Indianapolis TRACON
02:33PM 39.6500 -86.2167 75° East 273 314 6,700 1,980 Climbing Indianapolis TRACON
02:34PM 39.7787 -85.8299 83° East  Level FlightAware Approximate
02:35PM 39.7997 -85.6775 79° East  Level FlightAware Approximate
02:35PM 39.6744 -86.0911 76° East 275 316 9,500  Level Indianapolis Center
02:36PM 39.8256 -85.5264 74° East  Level FlightAware Approximate
02:36PM 39.7017 -85.9831 72° East 290 334 10,800  Level Indianapolis Center
02:37PM 39.7347 -85.8544 71° East 357 411 12,100 1,440 Climbing Indianapolis Center
02:38PM 39.7725 -85.7006 72° East 377 434 13,800 1,440 Climbing Indianapolis Center
02:39PM 39.7850 -85.5553 84° East 396 456 15,100 1,260 Climbing Indianapolis Center
02:40PM 39.7936 -85.4036 86° East 412 474 16,400 1,260 Climbing Indianapolis Center
02:41PM 39.8044 -85.2508 85° East 418 481 17,800 1,080 Climbing Indianapolis Center
02:42PM 39.8161 -85.0967 84° East 424 488 18,700 1,020 Climbing Indianapolis Center
02:43PM 39.8256 -84.9372 86° East 433 498 20,000 1,200 Climbing Indianapolis Center
02:44PM 39.8353 -84.7764 85° East 441 507 21,200 1,200 Climbing Indianapolis Center
02:45PM 39.8456 -84.6117 85° East 454 522 22,500 1,260 Climbing Indianapolis Center
02:46PM 39.8561 -84.4481 85° East 450 518 23,800 1,260 Climbing Indianapolis Center
02:47PM 39.8656 -84.2819 86° East 454 522 25,200 1,200 Climbing Indianapolis Center
02:48PM 39.8642 -84.1183 91° East 450 518 26,300 1,020 Climbing Indianapolis Center
02:49PM 39.8544 -83.9533 94° East 454 522 27,300 1,020 Climbing Indianapolis Center
02:50PM 39.8439 -83.7583 94° East 460 529 28,500 1,080 Climbing Indianapolis Center
02:51PM 39.8339 -83.5903 94° East 461 531 29,600 960 Climbing Indianapolis Center
02:52PM 39.8256 -83.4439 94° East 463 533 30,500 660 Climbing Indianapolis Center
02:53PM 39.8142 -83.2617 95° East 474 545 31,000 240 Climbing Indianapolis Center
02:54PM 39.8033 -83.0789 94° East 500 575 31,000  Level Indianapolis Center
02:55PM 39.7914 -82.8908 95° East 515 593 31,000  Level Indianapolis Center
02:56PM 39.7769 -82.6706 95° East 520 598 31,000  Level Indianapolis Center
02:57PM 39.7642 -82.4817 95° East 522 601 31,000  Level Indianapolis Center
02:58PM 39.7517 -82.2939 95° East 518 596 31,000  Level Indianapolis Center
02:59PM 39.7383 -82.1067 95° East 517 595 31,000  Level Indianapolis Center
03:00PM 39.7242 -81.9183 96° East 520 598 31,000  Level Indianapolis Center
03:02PM 39.7108 -81.7294 95° East 521 600 31,000  Level Indianapolis Center
03:03PM 39.6975 -81.5547 96° East 518 596 31,000  Level Indianapolis Center
03:04PM 39.6833 -81.3669 96° East 520 598 31,000  Level Indianapolis Center
03:05PM 39.6675 -81.1519 95° East 502 578 31,000  Level Cleveland Center
03:06PM 39.6558 -80.9633 95° East 516 594 31,000  Level Cleveland Center
03:07PM 39.6397 -80.7825 97° East 516 594 31,000  Level Cleveland Center
03:08PM 39.6522 -80.6072 85° East 504 580 31,000  Level Cleveland Center
03:09PM 39.6836 -80.4347 77° East 492 566 31,000 -120 Level Cleveland Center
03:10PM 39.7122 -80.2592 78° East 492 566 30,800 -840 Descending Cleveland Center
03:11PM 39.6722 -80.0975 108° East 462 532 29,400 -1,200 Descending Cleveland Center
03:12PM 39.6214 -79.9389 113° Southeast 462 532 28,400 -1,020 Descending Cleveland Center
03:13PM 39.5764 -79.7811 110° East 469 540 27,500 -780 Descending Washington Center
03:14PM 39.5317 -79.6197 110° East 469 540 27,000 -300 Descending Washington Center
03:15PM 39.5250 -79.4469 93° East 475 547 27,000 -360 Level Washington Center
03:16PM 39.4947 -79.2839 103° East 469 540 26,300 -1,500 Descending Washington Center
03:17PM 39.4358 -79.1600 122° Southeast 458 527 24,000 -2,220 Descending Washington Center
03:18PM 39.4028 -79.0053 105° East 447 514 21,900 -2,160 Descending Washington Center
03:19PM 39.3756 -78.8564 103° East 442 509 19,700 -2,160 Descending Washington Center
03:20PM 39.3506 -78.7078 102° East 431 496 17,600 -2,100 Descending Washington Center
03:21PM 39.3247 -78.5644 103° East 424 488 15,600 -2,280 Descending Washington Center
03:22PM 39.2989 -78.4292 104° East 405 466 13,100 -2,220 Descending Washington Center
03:23PM 39.2619 -78.3150 113° Southeast 370 426 11,200 -1,140 Descending Washington Center
03:24PM 39.2100 -78.2194 125° Southeast 338 389 10,900 -1,020 Descending Washington Center
03:25PM 39.1597 -78.1239 124° Southeast 332 382 9,200 -1,740 Descending Washington Center
03:26PM 39.1094 -78.0339 126° Southeast 316 364 7,500 -1,140 Descending Washington Center
03:27PM 39.0694 -77.9550 123° Southeast 293 337 7,000 -300 Descending Washington Center
03:28PM 39.0253 -77.8733 125° Southeast 258 297 6,900 -480 Descending Washington Center
03:29PM 38.9911 -77.8056 123° Southeast 247 284 6,100 -420 Descending Washington Center
03:30PM 38.9633 -77.7167 112° Southeast 241 277 6,100  Level Washington Center
03:31PM 38.9333 -77.6167 111° Southeast 253 291 6,100 -60 Level Potomac TRACON
03:32PM 38.8667 -77.5833 159° South 237 273 6,000 -600 Descending Potomac TRACON
03:33PM 38.8167 -77.5667 165° South 201 231 4,900 -1,020 Descending Potomac TRACON
03:34PM 38.8000 -77.5167 113° Southeast 215 247 4,000 -960 Descending Potomac TRACON
03:35PM 38.8167 -77.4667 67° East 176 203 3,100 -1,020 Descending Potomac TRACON
03:36PM 38.8500 -77.4667 360° North 143 165 2,100 -1,020 Descending Potomac TRACON